createdAt,value
2023-03-13T00:02:08.216Z,3.40
2023-03-13T00:07:11.026Z,3.28
2023-03-13T00:12:12.572Z,3.60
2023-03-13T00:17:15.005Z,3.03
2023-03-13T00:22:16.953Z,2.35
2023-03-13T00:27:18.780Z,3.53
2023-03-13T00:32:21.128Z,2.75
2023-03-13T00:37:23.608Z,3.42
2023-03-13T00:42:26.924Z,2.35
2023-03-13T00:47:30.766Z,2.88
2023-03-13T00:52:32.979Z,3.30
2023-03-13T00:57:35.900Z,2.25
2023-03-13T01:02:50.314Z,4.00
2023-03-13T01:07:52.136Z,3.50
2023-03-13T01:12:53.709Z,3.00
2023-03-13T01:17:55.332Z,2.85
2023-03-13T01:22:57.542Z,3.13
2023-03-13T01:28:00.033Z,2.97
2023-03-13T01:33:03.384Z,4.93
2023-03-13T01:38:05.066Z,3.35
2023-03-13T01:43:26.847Z,3.28
2023-03-13T01:48:36.773Z,2.33
2023-03-13T01:53:42.649Z,2.25
2023-03-13T01:58:45.809Z,3.38
2023-03-13T02:03:50.180Z,3.13
2023-03-13T02:08:57.714Z,2.38
2023-03-13T02:14:03.376Z,2.28
2023-03-13T02:19:17.346Z,2.47
2023-03-13T02:24:34.579Z,1.90
2023-03-13T02:29:36.504Z,2.22
2023-03-13T02:34:41.274Z,1.80
2023-03-13T02:39:48.212Z,2.88
2023-03-13T02:44:51.056Z,1.67
2023-03-13T02:49:53.223Z,1.63
2023-03-13T02:55:03.375Z,1.85
2023-03-13T03:00:07.141Z,1.30
2023-03-13T03:05:12.499Z,1.40
2023-03-13T03:10:15.866Z,1.73
2023-03-13T03:15:18.004Z,1.40
2023-03-13T03:20:22.592Z,1.05
2023-03-13T03:25:24.323Z,1.27
2023-03-13T03:30:26.262Z,0.90
2023-03-13T03:35:28.129Z,0.65
2023-03-13T03:40:30.965Z,1.55
2023-03-13T03:45:32.998Z,1.00
2023-03-13T03:50:34.869Z,0.60
2023-03-13T03:55:37.676Z,0.80
2023-03-13T04:00:39.580Z,0.60
2023-03-13T04:05:41.636Z,0.70
2023-03-13T04:10:44.565Z,0.50
2023-03-13T04:15:46.905Z,0.50
2023-03-13T04:20:48.942Z,0.40
2023-03-13T04:25:51.815Z,0.30
2023-03-13T04:30:54.747Z,0.20
2023-03-13T04:36:07.449Z,0.30
2023-03-13T04:41:28.344Z,0.30
2023-03-13T04:46:49.090Z,0.28
2023-03-13T04:52:09.859Z,0.30
2023-03-13T04:57:32.059Z,0.28
2023-03-13T05:03:02.674Z,0.10
2023-03-13T05:08:24.048Z,0.60
2023-03-13T05:13:46.189Z,0.20
2023-03-13T05:18:58.051Z,0.20
2023-03-13T05:24:10.112Z,0.30
2023-03-13T05:29:19.040Z,0.20
2023-03-13T05:34:44.020Z,0.30
2023-03-13T05:40:06.854Z,0.22
2023-03-13T05:45:20.887Z,0.20
2023-03-13T05:50:26.318Z,0.35
2023-03-13T05:55:46.927Z,0.40
2023-03-13T06:01:15.606Z,0.20
2023-03-13T06:06:36.793Z,0.93
2023-03-13T06:11:39.898Z,0.60
2023-03-13T06:16:42.227Z,0.40
2023-03-13T06:21:50.283Z,0.40
2023-03-13T06:26:51.841Z,0.40
2023-03-13T06:31:54.149Z,0.30
2023-03-13T06:36:56.613Z,0.40
2023-03-13T06:41:59.302Z,0.47
2023-03-13T06:47:01.716Z,0.52
2023-03-13T06:52:03.397Z,0.45
2023-03-13T06:57:05.035Z,0.52
2023-03-13T07:02:07.618Z,0.80
2023-03-13T07:07:14.944Z,0.90
2023-03-13T07:12:21.035Z,0.77
2023-03-13T07:17:22.891Z,0.90
2023-03-13T07:22:24.618Z,1.10
2023-03-13T07:27:26.256Z,1.20
2023-03-13T07:32:32.293Z,1.67
2023-03-13T07:37:33.932Z,1.50
2023-03-13T07:42:35.910Z,1.42
2023-03-13T07:47:37.458Z,1.63
2023-03-13T07:52:39.057Z,1.90
2023-03-13T07:57:40.733Z,1.30
2023-03-13T08:02:42.440Z,1.45
2023-03-13T08:07:45.222Z,1.33
2023-03-13T08:12:47.771Z,1.50
2023-03-13T08:17:49.563Z,1.58
2023-03-13T08:22:51.229Z,1.40
2023-03-13T08:27:53.797Z,1.60
2023-03-13T08:32:56.663Z,1.50
2023-03-13T08:37:59.579Z,1.48
2023-03-13T08:43:03.113Z,1.40
2023-03-13T08:48:04.768Z,2.40
2023-03-13T08:53:06.750Z,1.63
2023-03-13T08:58:09.022Z,1.80
2023-03-13T09:03:11.312Z,2.28
2023-03-13T09:08:14.453Z,1.60
2023-03-13T09:13:16.477Z,1.92
2023-03-13T09:18:18.253Z,2.75
2023-03-13T09:23:21.762Z,1.77
2023-03-13T09:28:25.057Z,2.03
2023-03-13T09:33:26.679Z,1.33
2023-03-13T09:38:28.565Z,2.03
2023-03-13T09:43:51.893Z,1.00
2023-03-13T09:49:25.887Z,1.20
2023-03-13T09:54:41.154Z,1.10
2023-03-13T09:59:49.447Z,1.08
2023-03-13T10:05:15.942Z,0.90
2023-03-13T10:10:44.620Z,0.90
2023-03-13T10:16:10.411Z,1.08
2023-03-13T10:21:18.581Z,1.17
2023-03-13T10:26:37.137Z,1.00
2023-03-13T10:31:39.985Z,1.20
2023-03-13T10:36:50.354Z,0.77
2023-03-13T10:42:10.101Z,1.08
2023-03-13T10:47:14.964Z,0.80
2023-03-13T10:52:33.182Z,0.90
2023-03-13T10:57:37.034Z,0.70
2023-03-13T11:02:39.824Z,0.60
2023-03-13T11:07:41.743Z,0.60
2023-03-13T11:12:52.125Z,0.93
2023-03-13T11:18:01.779Z,0.55
2023-03-13T11:23:37.062Z,0.50
2023-03-13T11:28:42.083Z,0.50
2023-03-13T11:34:02.921Z,0.30
2023-03-13T11:39:40.696Z,0.20
2023-03-13T11:44:55.619Z,0.30
2023-03-13T11:50:15.346Z,0.40
2023-03-13T11:55:54.525Z,0.20
2023-03-13T12:01:02.374Z,0.20
2023-03-13T12:06:15.887Z,0.32
2023-03-13T12:11:32.601Z,0.35
2023-03-13T12:16:46.485Z,0.32
2023-03-13T12:21:55.109Z,0.30
2023-03-13T12:27:18.094Z,0.35
2023-03-13T12:32:52.024Z,0.40
2023-03-13T12:37:55.489Z,0.55
2023-03-13T12:43:06.170Z,0.60
2023-03-13T12:48:16.889Z,0.38
2023-03-13T12:59:55.075Z,0.43
2023-03-13T13:05:00.511Z,0.68
2023-03-13T13:10:09.281Z,0.52
2023-03-13T13:15:15.603Z,0.47
2023-03-13T13:20:37.629Z,0.60
2023-03-13T13:25:40.467Z,0.70
2023-03-13T13:30:43.448Z,0.60
2023-03-13T13:35:47.162Z,0.60
2023-03-13T13:41:09.349Z,0.60
2023-03-13T13:46:43.858Z,0.75
2023-03-13T13:52:04.296Z,0.45
2023-03-13T13:57:19.849Z,0.50
2023-03-13T14:02:31.912Z,0.30
2023-03-13T14:07:39.907Z,0.28
2023-03-13T14:12:48.123Z,0.38
2023-03-13T14:18:00.049Z,0.45
2023-03-13T14:23:08.583Z,0.45
2023-03-13T14:28:29.413Z,0.22
2023-03-13T14:33:34.962Z,0.20
2023-03-13T14:38:36.928Z,0.40
2023-03-13T14:43:42.792Z,0.30
2023-03-13T14:48:44.673Z,0.40
2023-03-13T14:54:03.464Z,0.30
2023-03-13T14:59:19.305Z,0.25
2023-03-13T15:05:00.308Z,0.30
2023-03-13T15:10:19.043Z,0.43
2023-03-13T15:15:20.895Z,0.20
2023-03-13T15:20:22.569Z,0.40
2023-03-13T15:25:24.469Z,0.38
2023-03-13T15:30:27.065Z,0.30
2023-03-13T15:35:31.739Z,1.10
2023-03-13T15:40:34.394Z,1.10
2023-03-13T15:45:38.672Z,0.30
2023-03-13T15:50:40.943Z,0.40
2023-03-13T15:55:43.470Z,0.52
2023-03-13T16:00:46.353Z,0.50
2023-03-13T16:05:48.938Z,0.40
2023-03-13T16:10:51.561Z,0.77
2023-03-13T16:15:53.444Z,0.60
2023-03-13T16:20:55.174Z,0.80
2023-03-13T16:25:57.771Z,1.05
2023-03-13T16:31:00.352Z,0.70
2023-03-13T16:36:02.137Z,0.98
2023-03-13T16:41:03.984Z,1.02
2023-03-13T16:46:12.579Z,1.00
2023-03-13T16:51:17.690Z,1.27
2023-03-13T16:56:22.459Z,0.80
2023-03-13T17:01:24.885Z,1.05
2023-03-13T17:06:36.850Z,1.23
2023-03-13T17:11:39.125Z,1.30
2023-03-13T17:16:45.921Z,1.08
2023-03-13T17:21:48.795Z,1.02
2023-03-13T17:26:51.457Z,1.00
2023-03-13T17:31:54.441Z,1.40
2023-03-13T17:36:57.151Z,1.38
2023-03-13T17:41:59.072Z,1.02
2023-03-13T17:47:01.939Z,1.10
2023-03-13T17:52:04.444Z,2.10
2023-03-13T17:57:18.829Z,1.40
2023-03-13T18:02:20.380Z,1.00
2023-03-13T18:07:34.613Z,1.20
2023-03-13T18:12:36.828Z,2.40
2023-03-13T18:17:39.998Z,1.38
2023-03-13T18:22:45.192Z,2.05
2023-03-13T18:27:48.432Z,1.58
2023-03-13T18:32:50.588Z,3.58
2023-03-13T18:37:52.561Z,1.45
2023-03-13T18:42:55.532Z,1.75
2023-03-13T18:47:57.926Z,1.23
2023-03-13T18:53:02.611Z,1.40
2023-03-13T18:58:05.664Z,0.63
2023-03-13T19:03:07.286Z,1.40
2023-03-13T19:08:11.303Z,0.80
2023-03-13T19:13:14.231Z,1.10
2023-03-13T19:18:15.879Z,0.63
2023-03-13T19:23:18.175Z,0.85
2023-03-13T19:28:20.957Z,0.85
2023-03-13T19:33:23.441Z,0.60
2023-03-13T19:38:25.538Z,0.73
2023-03-13T19:43:27.319Z,1.40
2023-03-13T19:48:29.917Z,0.80
2023-03-13T19:53:32.255Z,0.63
2023-03-13T19:58:34.595Z,1.05
2023-03-13T20:03:36.480Z,0.95
2023-03-13T20:08:38.230Z,1.13
2023-03-13T20:13:40.581Z,0.80
2023-03-13T20:18:43.368Z,0.77
2023-03-13T20:23:47.858Z,0.80
2023-03-13T20:28:51.705Z,1.02
2023-03-13T20:33:54.488Z,0.80
2023-03-13T20:38:56.880Z,1.15
2023-03-13T20:43:59.104Z,0.95
2023-03-13T20:49:01.006Z,0.93
2023-03-13T20:54:02.980Z,1.25
2023-03-13T20:59:04.784Z,1.50
2023-03-13T21:04:06.452Z,0.85
2023-03-13T21:09:08.460Z,1.50
2023-03-13T21:14:10.884Z,1.63
2023-03-13T21:19:13.102Z,1.52
2023-03-13T21:24:16.868Z,1.15
2023-03-13T21:29:19.812Z,1.10
2023-03-13T21:34:22.829Z,2.58
2023-03-13T21:39:25.841Z,1.98
2023-03-13T21:44:28.914Z,2.33
2023-03-13T21:49:31.019Z,2.72
2023-03-13T21:54:34.035Z,2.40
2023-03-13T21:59:36.422Z,1.88
2023-03-13T22:04:38.167Z,1.30
2023-03-13T22:09:39.678Z,1.52
2023-03-13T22:14:41.271Z,1.38
2023-03-13T22:19:43.200Z,1.15
2023-03-13T22:24:44.691Z,1.05
2023-03-13T22:29:46.335Z,1.17
2023-03-13T22:34:48.531Z,1.00
2023-03-13T22:39:50.489Z,2.10
2023-03-13T22:44:55.094Z,1.33
2023-03-13T22:49:57.540Z,1.20
2023-03-13T22:54:59.487Z,1.27
2023-03-13T23:00:02.291Z,1.00
2023-03-13T23:05:04.950Z,1.00
2023-03-13T23:10:09.452Z,0.93
2023-03-13T23:15:12.325Z,1.00
2023-03-13T23:20:14.626Z,1.40
2023-03-13T23:25:16.687Z,1.50
2023-03-13T23:30:18.797Z,1.20
2023-03-13T23:35:20.978Z,0.90
2023-03-13T23:40:25.153Z,1.42
2023-03-13T23:45:27.845Z,1.23
2023-03-13T23:50:29.856Z,1.25
2023-03-13T23:55:32.212Z,1.10
